sensor_id;sensor_type;location;lat;lon;timestamp;P1;durP1;ratioP1;P2;durP2;ratioP2
12312;SDS011;6220;53.580;9.758;2023-02-28T00:00:19;6.13;;;3.27;;
12312;SDS011;6220;53.580;9.758;2023-02-28T00:02:45;4.97;;;3.13;;
12312;SDS011;6220;53.580;9.758;2023-02-28T00:05:12;7.23;;;3.63;;
12312;SDS011;6220;53.580;9.758;2023-02-28T00:07:38;5.33;;;3.40;;
12312;SDS011;6220;53.580;9.758;2023-02-28T00:10:05;5.83;;;3.13;;
12312;SDS011;6220;53.580;9.758;2023-02-28T00:12:32;5.40;;;3.50;;
12312;SDS011;6220;53.580;9.758;2023-02-28T00:14:58;5.03;;;3.50;;
12312;SDS011;6220;53.580;9.758;2023-02-28T00:17:23;9.43;;;3.27;;
12312;SDS011;6220;53.580;9.758;2023-02-28T00:19:50;6.10;;;3.40;;
12312;SDS011;6220;53.580;9.758;2023-02-28T00:22:16;6.23;;;3.10;;
12312;SDS011;6220;53.580;9.758;2023-02-28T00:24:43;5.40;;;3.30;;
12312;SDS011;6220;53.580;9.758;2023-02-28T00:27:09;6.10;;;3.30;;
12312;SDS011;6220;53.580;9.758;2023-02-28T00:29:35;6.53;;;3.30;;
12312;SDS011;6220;53.580;9.758;2023-02-28T00:32:00;5.97;;;3.27;;
12312;SDS011;6220;53.580;9.758;2023-02-28T00:34:28;7.00;;;3.33;;
12312;SDS011;6220;53.580;9.758;2023-02-28T00:36:53;6.07;;;3.30;;
12312;SDS011;6220;53.580;9.758;2023-02-28T00:39:20;6.67;;;4.07;;
12312;SDS011;6220;53.580;9.758;2023-02-28T00:41:46;6.60;;;3.43;;
12312;SDS011;6220;53.580;9.758;2023-02-28T00:44:11;6.23;;;3.77;;
12312;SDS011;6220;53.580;9.758;2023-02-28T00:46:38;5.90;;;3.40;;
12312;SDS011;6220;53.580;9.758;2023-02-28T00:49:03;8.33;;;3.70;;
12312;SDS011;6220;53.580;9.758;2023-02-28T00:51:29;5.40;;;3.00;;
12312;SDS011;6220;53.580;9.758;2023-02-28T00:53:55;5.70;;;3.20;;
12312;SDS011;6220;53.580;9.758;2023-02-28T00:56:20;6.23;;;3.03;;
12312;SDS011;6220;53.580;9.758;2023-02-28T00:58:45;9.13;;;3.63;;
12312;SDS011;6220;53.580;9.758;2023-02-28T01:01:11;4.07;;;3.10;;
12312;SDS011;6220;53.580;9.758;2023-02-28T01:03:36;5.23;;;3.17;;
12312;SDS011;6220;53.580;9.758;2023-02-28T01:06:03;6.60;;;3.17;;
12312;SDS011;6220;53.580;9.758;2023-02-28T01:08:30;5.87;;;3.33;;
12312;SDS011;6220;53.580;9.758;2023-02-28T01:10:56;8.27;;;3.27;;
12312;SDS011;6220;53.580;9.758;2023-02-28T01:13:21;3.97;;;2.50;;
12312;SDS011;6220;53.580;9.758;2023-02-28T01:15:49;5.50;;;3.23;;
12312;SDS011;6220;53.580;9.758;2023-02-28T01:18:16;6.93;;;2.93;;
12312;SDS011;6220;53.580;9.758;2023-02-28T01:20:41;5.60;;;3.33;;
12312;SDS011;6220;53.580;9.758;2023-02-28T01:23:07;6.10;;;3.00;;
12312;SDS011;6220;53.580;9.758;2023-02-28T01:25:34;5.97;;;2.90;;
12312;SDS011;6220;53.580;9.758;2023-02-28T01:28:00;4.63;;;2.67;;
12312;SDS011;6220;53.580;9.758;2023-02-28T01:30:25;5.17;;;3.00;;
12312;SDS011;6220;53.580;9.758;2023-02-28T01:32:50;4.70;;;3.07;;
12312;SDS011;6220;53.580;9.758;2023-02-28T01:35:18;6.93;;;3.30;;
12312;SDS011;6220;53.580;9.758;2023-02-28T01:37:44;4.40;;;2.90;;
12312;SDS011;6220;53.580;9.758;2023-02-28T01:40:09;6.00;;;2.80;;
12312;SDS011;6220;53.580;9.758;2023-02-28T01:42:35;6.97;;;3.00;;
12312;SDS011;6220;53.580;9.758;2023-02-28T01:45:06;5.03;;;2.90;;
12312;SDS011;6220;53.580;9.758;2023-02-28T01:47:44;7.47;;;2.77;;
12312;SDS011;6220;53.580;9.758;2023-02-28T01:50:16;4.87;;;3.03;;
12312;SDS011;6220;53.580;9.758;2023-02-28T01:52:44;4.83;;;2.80;;
12312;SDS011;6220;53.580;9.758;2023-02-28T01:55:10;5.67;;;2.80;;
12312;SDS011;6220;53.580;9.758;2023-02-28T01:57:42;6.37;;;2.87;;
12312;SDS011;6220;53.580;9.758;2023-02-28T02:00:12;5.73;;;3.10;;
12312;SDS011;6220;53.580;9.758;2023-02-28T02:02:43;4.70;;;3.17;;
12312;SDS011;6220;53.580;9.758;2023-02-28T02:05:19;4.93;;;2.90;;
12312;SDS011;6220;53.580;9.758;2023-02-28T02:07:48;4.50;;;2.70;;
12312;SDS011;6220;53.580;9.758;2023-02-28T02:10:20;5.03;;;3.00;;
12312;SDS011;6220;53.580;9.758;2023-02-28T02:15:47;4.97;;;2.83;;
12312;SDS011;6220;53.580;9.758;2023-02-28T02:18:23;5.53;;;3.00;;
12312;SDS011;6220;53.580;9.758;2023-02-28T02:45:59;6.23;;;3.00;;
12312;SDS011;6220;53.580;9.758;2023-02-28T02:48:29;3.83;;;2.63;;
12312;SDS011;6220;53.580;9.758;2023-02-28T02:50:57;4.30;;;2.67;;
12312;SDS011;6220;53.580;9.758;2023-02-28T02:53:29;5.60;;;2.70;;
12312;SDS011;6220;53.580;9.758;2023-02-28T02:55:57;5.37;;;3.03;;
12312;SDS011;6220;53.580;9.758;2023-02-28T02:58:28;4.93;;;2.80;;
12312;SDS011;6220;53.580;9.758;2023-02-28T03:00:58;4.63;;;2.40;;
12312;SDS011;6220;53.580;9.758;2023-02-28T03:03:25;4.93;;;2.20;;
12312;SDS011;6220;53.580;9.758;2023-02-28T03:05:54;3.33;;;2.27;;
12312;SDS011;6220;53.580;9.758;2023-02-28T03:08:21;6.77;;;2.63;;
12312;SDS011;6220;53.580;9.758;2023-02-28T03:10:48;3.10;;;2.20;;
12312;SDS011;6220;53.580;9.758;2023-02-28T03:30:39;2.93;;;1.93;;
12312;SDS011;6220;53.580;9.758;2023-02-28T03:35:43;4.30;;;2.40;;
12312;SDS011;6220;53.580;9.758;2023-02-28T03:38:14;2.30;;;1.60;;
12312;SDS011;6220;53.580;9.758;2023-02-28T03:41:14;5.03;;;2.43;;
12312;SDS011;6220;53.580;9.758;2023-02-28T03:43:43;5.47;;;2.27;;
12312;SDS011;6220;53.580;9.758;2023-02-28T03:46:12;3.73;;;2.27;;
12312;SDS011;6220;53.580;9.758;2023-02-28T03:48:44;5.03;;;2.83;;
12312;SDS011;6220;53.580;9.758;2023-02-28T03:51:14;5.87;;;2.50;;
12312;SDS011;6220;53.580;9.758;2023-02-28T03:53:44;4.33;;;2.37;;
12312;SDS011;6220;53.580;9.758;2023-02-28T03:58:49;4.20;;;2.77;;
12312;SDS011;6220;53.580;9.758;2023-02-28T04:01:23;4.40;;;2.20;;
12312;SDS011;6220;53.580;9.758;2023-02-28T04:03:49;4.80;;;2.70;;
12312;SDS011;6220;53.580;9.758;2023-02-28T04:06:16;7.47;;;3.17;;
12312;SDS011;6220;53.580;9.758;2023-02-28T04:08:45;6.47;;;2.90;;
12312;SDS011;6220;53.580;9.758;2023-02-28T04:11:55;3.03;;;2.60;;
12312;SDS011;6220;53.580;9.758;2023-02-28T04:14:00;8.00;;;2.70;;
12312;SDS011;6220;53.580;9.758;2023-02-28T04:16:27;5.40;;;2.50;;
12312;SDS011;6220;53.580;9.758;2023-02-28T04:18:53;5.97;;;2.97;;
12312;SDS011;6220;53.580;9.758;2023-02-28T04:21:18;5.03;;;2.63;;
12312;SDS011;6220;53.580;9.758;2023-02-28T04:23:48;4.63;;;2.83;;
12312;SDS011;6220;53.580;9.758;2023-02-28T04:26:13;6.33;;;2.93;;
12312;SDS011;6220;53.580;9.758;2023-02-28T04:28:40;5.30;;;3.20;;
12312;SDS011;6220;53.580;9.758;2023-02-28T04:31:05;7.47;;;3.20;;
12312;SDS011;6220;53.580;9.758;2023-02-28T04:33:32;5.30;;;2.77;;
12312;SDS011;6220;53.580;9.758;2023-02-28T04:35:58;5.50;;;3.07;;
12312;SDS011;6220;53.580;9.758;2023-02-28T04:38:28;5.23;;;2.73;;
12312;SDS011;6220;53.580;9.758;2023-02-28T04:40:56;6.17;;;2.70;;
12312;SDS011;6220;53.580;9.758;2023-02-28T04:43:22;5.37;;;2.83;;
12312;SDS011;6220;53.580;9.758;2023-02-28T04:45:47;4.60;;;2.80;;
12312;SDS011;6220;53.580;9.758;2023-02-28T04:48:13;6.00;;;3.17;;
12312;SDS011;6220;53.580;9.758;2023-02-28T04:50:38;6.43;;;3.17;;
12312;SDS011;6220;53.580;9.758;2023-02-28T04:53:03;6.23;;;3.47;;
12312;SDS011;6220;53.580;9.758;2023-02-28T04:55:30;6.30;;;3.40;;
12312;SDS011;6220;53.580;9.758;2023-02-28T04:57:55;6.20;;;3.50;;
12312;SDS011;6220;53.580;9.758;2023-02-28T05:00:23;6.30;;;3.60;;
12312;SDS011;6220;53.580;9.758;2023-02-28T05:02:50;7.43;;;3.30;;
12312;SDS011;6220;53.580;9.758;2023-02-28T05:05:15;5.30;;;3.20;;
12312;SDS011;6220;53.580;9.758;2023-02-28T05:07:43;6.03;;;3.10;;
12312;SDS011;6220;53.580;9.758;2023-02-28T05:10:09;8.47;;;3.10;;
12312;SDS011;6220;53.580;9.758;2023-02-28T05:12:35;8.20;;;3.50;;
12312;SDS011;6220;53.580;9.758;2023-02-28T05:15:00;6.30;;;2.90;;
12312;SDS011;6220;53.580;9.758;2023-02-28T05:17:27;4.03;;;2.87;;
12312;SDS011;6220;53.580;9.758;2023-02-28T05:19:52;6.90;;;3.33;;
12312;SDS011;6220;53.580;9.758;2023-02-28T05:22:18;7.63;;;3.33;;
12312;SDS011;6220;53.580;9.758;2023-02-28T05:24:43;4.80;;;3.20;;
12312;SDS011;6220;53.580;9.758;2023-02-28T05:27:09;5.10;;;3.20;;
12312;SDS011;6220;53.580;9.758;2023-02-28T05:29:34;5.53;;;3.43;;
12312;SDS011;6220;53.580;9.758;2023-02-28T05:32:06;6.97;;;3.43;;
12312;SDS011;6220;53.580;9.758;2023-02-28T05:34:33;5.40;;;3.00;;
12312;SDS011;6220;53.580;9.758;2023-02-28T05:36:59;4.70;;;2.90;;
12312;SDS011;6220;53.580;9.758;2023-02-28T05:39:24;4.53;;;2.80;;
12312;SDS011;6220;53.580;9.758;2023-02-28T05:41:49;5.00;;;3.27;;
12312;SDS011;6220;53.580;9.758;2023-02-28T05:44:15;6.43;;;3.43;;
12312;SDS011;6220;53.580;9.758;2023-02-28T05:46:40;4.93;;;2.70;;
12312;SDS011;6220;53.580;9.758;2023-02-28T05:49:05;8.00;;;3.87;;
12312;SDS011;6220;53.580;9.758;2023-02-28T05:51:31;6.17;;;3.70;;
12312;SDS011;6220;53.580;9.758;2023-02-28T05:54:00;5.60;;;3.50;;
12312;SDS011;6220;53.580;9.758;2023-02-28T05:56:26;5.57;;;3.60;;
12312;SDS011;6220;53.580;9.758;2023-02-28T05:58:51;6.87;;;3.70;;
12312;SDS011;6220;53.580;9.758;2023-02-28T06:03:45;7.83;;;3.80;;
12312;SDS011;6220;53.580;9.758;2023-02-28T06:06:10;6.47;;;4.00;;
12312;SDS011;6220;53.580;9.758;2023-02-28T06:08:35;7.10;;;3.60;;
12312;SDS011;6220;53.580;9.758;2023-02-28T06:11:04;14.40;;;5.00;;
12312;SDS011;6220;53.580;9.758;2023-02-28T06:13:29;8.50;;;4.43;;
12312;SDS011;6220;53.580;9.758;2023-02-28T06:15:55;7.23;;;4.70;;
12312;SDS011;6220;53.580;9.758;2023-02-28T06:18:20;7.20;;;4.23;;
12312;SDS011;6220;53.580;9.758;2023-02-28T06:20:52;5.63;;;3.50;;
12312;SDS011;6220;53.580;9.758;2023-02-28T06:23:19;6.03;;;3.37;;
12312;SDS011;6220;53.580;9.758;2023-02-28T06:25:45;5.80;;;3.70;;
12312;SDS011;6220;53.580;9.758;2023-02-28T06:28:11;7.87;;;4.00;;
12312;SDS011;6220;53.580;9.758;2023-02-28T06:30:37;6.80;;;3.60;;
12312;SDS011;6220;53.580;9.758;2023-02-28T06:33:02;7.27;;;3.53;;
12312;SDS011;6220;53.580;9.758;2023-02-28T06:35:28;7.03;;;3.87;;
12312;SDS011;6220;53.580;9.758;2023-02-28T06:37:54;7.87;;;3.53;;
12312;SDS011;6220;53.580;9.758;2023-02-28T06:40:20;6.57;;;4.00;;
12312;SDS011;6220;53.580;9.758;2023-02-28T06:42:45;7.37;;;3.80;;
12312;SDS011;6220;53.580;9.758;2023-02-28T06:45:11;5.40;;;3.93;;
12312;SDS011;6220;53.580;9.758;2023-02-28T06:47:37;6.67;;;3.97;;
12312;SDS011;6220;53.580;9.758;2023-02-28T06:50:04;7.33;;;3.90;;
12312;SDS011;6220;53.580;9.758;2023-02-28T06:52:30;5.80;;;3.70;;
12312;SDS011;6220;53.580;9.758;2023-02-28T06:54:55;6.47;;;3.73;;
12312;SDS011;6220;53.580;9.758;2023-02-28T06:57:28;9.47;;;4.20;;
12312;SDS011;6220;53.580;9.758;2023-02-28T06:59:58;8.87;;;5.00;;
12312;SDS011;6220;53.580;9.758;2023-02-28T07:02:24;6.33;;;4.10;;
12312;SDS011;6220;53.580;9.758;2023-02-28T07:04:50;6.23;;;4.00;;
12312;SDS011;6220;53.580;9.758;2023-02-28T07:07:16;6.13;;;3.70;;
12312;SDS011;6220;53.580;9.758;2023-02-28T07:09:41;5.37;;;3.93;;
12312;SDS011;6220;53.580;9.758;2023-02-28T07:12:07;5.13;;;3.00;;
12312;SDS011;6220;53.580;9.758;2023-02-28T07:14:32;4.73;;;2.83;;
12312;SDS011;6220;53.580;9.758;2023-02-28T07:16:57;5.00;;;3.47;;
12312;SDS011;6220;53.580;9.758;2023-02-28T07:19:23;8.60;;;3.27;;
12312;SDS011;6220;53.580;9.758;2023-02-28T07:21:48;4.70;;;2.90;;
12312;SDS011;6220;53.580;9.758;2023-02-28T07:24:14;6.10;;;3.47;;
12312;SDS011;6220;53.580;9.758;2023-02-28T07:26:41;4.97;;;2.90;;
12312;SDS011;6220;53.580;9.758;2023-02-28T07:29:06;8.70;;;3.10;;
12312;SDS011;6220;53.580;9.758;2023-02-28T07:31:33;4.93;;;2.50;;
12312;SDS011;6220;53.580;9.758;2023-02-28T07:33:58;4.80;;;2.97;;
12312;SDS011;6220;53.580;9.758;2023-02-28T07:36:24;3.17;;;2.40;;
12312;SDS011;6220;53.580;9.758;2023-02-28T07:38:49;4.70;;;2.70;;
12312;SDS011;6220;53.580;9.758;2023-02-28T07:41:19;4.60;;;2.80;;
12312;SDS011;6220;53.580;9.758;2023-02-28T07:43:46;3.63;;;2.53;;
12312;SDS011;6220;53.580;9.758;2023-02-28T07:46:12;4.73;;;2.70;;
12312;SDS011;6220;53.580;9.758;2023-02-28T07:48:43;11.67;;;2.93;;
12312;SDS011;6220;53.580;9.758;2023-02-28T07:51:09;6.13;;;2.90;;
12312;SDS011;6220;53.580;9.758;2023-02-28T07:53:35;4.83;;;2.83;;
12312;SDS011;6220;53.580;9.758;2023-02-28T07:56:01;4.60;;;2.87;;
12312;SDS011;6220;53.580;9.758;2023-02-28T07:58:27;5.07;;;2.50;;
12312;SDS011;6220;53.580;9.758;2023-02-28T08:00:53;3.60;;;2.77;;
12312;SDS011;6220;53.580;9.758;2023-02-28T08:03:19;4.57;;;3.03;;
12312;SDS011;6220;53.580;9.758;2023-02-28T08:05:45;5.30;;;2.60;;
12312;SDS011;6220;53.580;9.758;2023-02-28T08:08:11;2.93;;;2.17;;
12312;SDS011;6220;53.580;9.758;2023-02-28T08:10:37;5.37;;;2.53;;
12312;SDS011;6220;53.580;9.758;2023-02-28T08:13:02;3.77;;;2.40;;
12312;SDS011;6220;53.580;9.758;2023-02-28T08:15:28;4.00;;;2.43;;
12312;SDS011;6220;53.580;9.758;2023-02-28T08:17:53;3.83;;;2.37;;
12312;SDS011;6220;53.580;9.758;2023-02-28T08:20:21;5.53;;;2.97;;
12312;SDS011;6220;53.580;9.758;2023-02-28T08:22:47;5.10;;;2.70;;
12312;SDS011;6220;53.580;9.758;2023-02-28T08:25:12;3.80;;;2.77;;
12312;SDS011;6220;53.580;9.758;2023-02-28T08:27:38;3.83;;;2.13;;
12312;SDS011;6220;53.580;9.758;2023-02-28T08:30:03;4.70;;;2.60;;
12312;SDS011;6220;53.580;9.758;2023-02-28T08:32:29;3.30;;;2.33;;
12312;SDS011;6220;53.580;9.758;2023-02-28T08:34:54;5.60;;;2.63;;
12312;SDS011;6220;53.580;9.758;2023-02-28T08:37:20;6.57;;;2.83;;
12312;SDS011;6220;53.580;9.758;2023-02-28T08:39:45;3.73;;;2.33;;
12312;SDS011;6220;53.580;9.758;2023-02-28T08:42:10;4.10;;;2.03;;
12312;SDS011;6220;53.580;9.758;2023-02-28T08:44:36;2.17;;;1.97;;
12312;SDS011;6220;53.580;9.758;2023-02-28T08:47:01;3.23;;;2.17;;
12312;SDS011;6220;53.580;9.758;2023-02-28T08:49:26;4.07;;;2.33;;
12312;SDS011;6220;53.580;9.758;2023-02-28T08:51:52;4.13;;;2.47;;
12312;SDS011;6220;53.580;9.758;2023-02-28T08:54:18;4.77;;;2.40;;
12312;SDS011;6220;53.580;9.758;2023-02-28T08:56:45;3.27;;;2.53;;
12312;SDS011;6220;53.580;9.758;2023-02-28T08:59:11;4.40;;;2.60;;
12312;SDS011;6220;53.580;9.758;2023-02-28T09:01:37;4.63;;;2.43;;
12312;SDS011;6220;53.580;9.758;2023-02-28T09:04:02;5.90;;;2.53;;
12312;SDS011;6220;53.580;9.758;2023-02-28T09:06:28;3.17;;;2.30;;
12312;SDS011;6220;53.580;9.758;2023-02-28T09:08:56;4.67;;;2.30;;
12312;SDS011;6220;53.580;9.758;2023-02-28T09:11:23;3.73;;;2.13;;
12312;SDS011;6220;53.580;9.758;2023-02-28T09:13:49;4.07;;;2.20;;
12312;SDS011;6220;53.580;9.758;2023-02-28T09:16:14;3.20;;;1.97;;
12312;SDS011;6220;53.580;9.758;2023-02-28T09:18:41;2.57;;;1.90;;
12312;SDS011;6220;53.580;9.758;2023-02-28T09:21:07;3.77;;;1.83;;
12312;SDS011;6220;53.580;9.758;2023-02-28T09:23:33;3.10;;;1.97;;
12312;SDS011;6220;53.580;9.758;2023-02-28T09:25:59;2.30;;;2.10;;
12312;SDS011;6220;53.580;9.758;2023-02-28T09:28:24;3.60;;;2.10;;
12312;SDS011;6220;53.580;9.758;2023-02-28T09:30:51;4.30;;;2.20;;
12312;SDS011;6220;53.580;9.758;2023-02-28T09:33:18;3.37;;;1.80;;
12312;SDS011;6220;53.580;9.758;2023-02-28T09:35:45;2.87;;;2.00;;
12312;SDS011;6220;53.580;9.758;2023-02-28T09:38:11;2.50;;;1.77;;
12312;SDS011;6220;53.580;9.758;2023-02-28T09:40:48;2.90;;;1.97;;
12312;SDS011;6220;53.580;9.758;2023-02-28T09:43:16;2.43;;;1.90;;
12312;SDS011;6220;53.580;9.758;2023-02-28T09:45:45;1.93;;;1.50;;
12312;SDS011;6220;53.580;9.758;2023-02-28T09:48:14;2.43;;;1.70;;
12312;SDS011;6220;53.580;9.758;2023-02-28T09:51:27;2.60;;;2.00;;
12312;SDS011;6220;53.580;9.758;2023-02-28T09:53:51;3.10;;;1.77;;
12312;SDS011;6220;53.580;9.758;2023-02-28T09:56:24;2.10;;;1.67;;
12312;SDS011;6220;53.580;9.758;2023-02-28T09:59:01;4.53;;;2.17;;
12312;SDS011;6220;53.580;9.758;2023-02-28T10:10:35;2.30;;;1.60;;
12312;SDS011;6220;53.580;9.758;2023-02-28T10:13:04;1.43;;;1.33;;
12312;SDS011;6220;53.580;9.758;2023-02-28T10:15:32;1.87;;;1.77;;
12312;SDS011;6220;53.580;9.758;2023-02-28T10:18:11;1.33;;;1.23;;
12312;SDS011;6220;53.580;9.758;2023-02-28T10:20:41;2.93;;;1.70;;
12312;SDS011;6220;53.580;9.758;2023-02-28T10:23:17;2.33;;;1.73;;
12312;SDS011;6220;53.580;9.758;2023-02-28T10:25:48;2.27;;;1.50;;
12312;SDS011;6220;53.580;9.758;2023-02-28T10:28:19;2.50;;;1.80;;
12312;SDS011;6220;53.580;9.758;2023-02-28T10:30:48;3.47;;;1.70;;
12312;SDS011;6220;53.580;9.758;2023-02-28T10:35:52;4.03;;;1.77;;
12312;SDS011;6220;53.580;9.758;2023-02-28T10:38:19;2.93;;;2.03;;
12312;SDS011;6220;53.580;9.758;2023-02-28T10:40:47;3.53;;;2.20;;
12312;SDS011;6220;53.580;9.758;2023-02-28T10:45:37;3.07;;;2.30;;
12312;SDS011;6220;53.580;9.758;2023-02-28T10:50:35;3.17;;;2.17;;
12312;SDS011;6220;53.580;9.758;2023-02-28T10:53:17;4.60;;;2.83;;
12312;SDS011;6220;53.580;9.758;2023-02-28T10:56:35;3.30;;;2.40;;
12312;SDS011;6220;53.580;9.758;2023-02-28T11:01:51;3.87;;;2.40;;
12312;SDS011;6220;53.580;9.758;2023-02-28T11:06:58;3.20;;;2.53;;
12312;SDS011;6220;53.580;9.758;2023-02-28T11:09:26;3.10;;;2.10;;
12312;SDS011;6220;53.580;9.758;2023-02-28T11:11:55;5.27;;;2.60;;
12312;SDS011;6220;53.580;9.758;2023-02-28T11:14:24;3.23;;;2.50;;
12312;SDS011;6220;53.580;9.758;2023-02-28T11:16:52;2.50;;;2.07;;
12312;SDS011;6220;53.580;9.758;2023-02-28T11:19:25;2.43;;;2.00;;
12312;SDS011;6220;53.580;9.758;2023-02-28T11:21:57;2.10;;;1.90;;
12312;SDS011;6220;53.580;9.758;2023-02-28T11:24:25;4.23;;;2.53;;
12312;SDS011;6220;53.580;9.758;2023-02-28T11:26:53;2.70;;;2.00;;
12312;SDS011;6220;53.580;9.758;2023-02-28T11:34:41;2.50;;;2.13;;
12312;SDS011;6220;53.580;9.758;2023-02-28T11:37:12;3.20;;;2.23;;
12312;SDS011;6220;53.580;9.758;2023-02-28T11:39:42;3.70;;;2.20;;
12312;SDS011;6220;53.580;9.758;2023-02-28T11:47:47;2.13;;;1.80;;
12312;SDS011;6220;53.580;9.758;2023-02-28T11:52:54;4.40;;;2.17;;
12312;SDS011;6220;53.580;9.758;2023-02-28T11:55:24;2.73;;;1.70;;
12312;SDS011;6220;53.580;9.758;2023-02-28T11:57:55;3.10;;;2.27;;
12312;SDS011;6220;53.580;9.758;2023-02-28T12:03:09;1.80;;;1.67;;
12312;SDS011;6220;53.580;9.758;2023-02-28T12:14:12;3.13;;;2.03;;
12312;SDS011;6220;53.580;9.758;2023-02-28T12:22:27;2.77;;;2.20;;
12312;SDS011;6220;53.580;9.758;2023-02-28T12:27:41;2.77;;;2.17;;
12312;SDS011;6220;53.580;9.758;2023-02-28T12:32:50;2.60;;;1.80;;
12312;SDS011;6220;53.580;9.758;2023-02-28T12:35:19;2.63;;;1.90;;
12312;SDS011;6220;53.580;9.758;2023-02-28T12:37:54;2.13;;;1.80;;
12312;SDS011;6220;53.580;9.758;2023-02-28T12:40:23;2.37;;;1.73;;
12312;SDS011;6220;53.580;9.758;2023-02-28T12:42:52;2.97;;;2.00;;
12312;SDS011;6220;53.580;9.758;2023-02-28T12:45:22;2.97;;;2.00;;
12312;SDS011;6220;53.580;9.758;2023-02-28T12:47:50;4.37;;;1.93;;
12312;SDS011;6220;53.580;9.758;2023-02-28T12:50:19;2.33;;;1.90;;
12312;SDS011;6220;53.580;9.758;2023-02-28T13:01:13;3.27;;;2.10;;
12312;SDS011;6220;53.580;9.758;2023-02-28T13:09:31;4.67;;;1.80;;
12312;SDS011;6220;53.580;9.758;2023-02-28T13:11:57;3.47;;;2.03;;
12312;SDS011;6220;53.580;9.758;2023-02-28T13:17:21;6.27;;;4.60;;
12312;SDS011;6220;53.580;9.758;2023-02-28T13:24:57;2.60;;;2.03;;
12312;SDS011;6220;53.580;9.758;2023-02-28T13:27:24;1.77;;;1.53;;
12312;SDS011;6220;53.580;9.758;2023-02-28T13:29:50;2.53;;;1.90;;
12312;SDS011;6220;53.580;9.758;2023-02-28T13:42:23;3.73;;;1.97;;
12312;SDS011;6220;53.580;9.758;2023-02-28T14:10:29;3.30;;;1.80;;
12312;SDS011;6220;53.580;9.758;2023-02-28T14:16:13;4.10;;;2.40;;
12312;SDS011;6220;53.580;9.758;2023-02-28T14:18:41;3.70;;;2.40;;
12312;SDS011;6220;53.580;9.758;2023-02-28T14:23:36;3.03;;;2.20;;
12312;SDS011;6220;53.580;9.758;2023-02-28T14:29:00;3.10;;;2.07;;
12312;SDS011;6220;53.580;9.758;2023-02-28T14:37:04;3.10;;;2.17;;
12312;SDS011;6220;53.580;9.758;2023-02-28T14:39:30;2.43;;;1.90;;
12312;SDS011;6220;53.580;9.758;2023-02-28T14:41:56;3.33;;;2.40;;
12312;SDS011;6220;53.580;9.758;2023-02-28T14:44:27;8.23;;;2.67;;
12312;SDS011;6220;53.580;9.758;2023-02-28T14:47:02;4.87;;;2.43;;
12312;SDS011;6220;53.580;9.758;2023-02-28T14:54:36;3.47;;;2.00;;
12312;SDS011;6220;53.580;9.758;2023-02-28T14:57:02;3.20;;;1.80;;
12312;SDS011;6220;53.580;9.758;2023-02-28T14:59:33;3.63;;;2.30;;
12312;SDS011;6220;53.580;9.758;2023-02-28T15:02:21;4.60;;;2.27;;
12312;SDS011;6220;53.580;9.758;2023-02-28T15:04:53;3.30;;;1.80;;
12312;SDS011;6220;53.580;9.758;2023-02-28T15:07:22;3.80;;;2.33;;
12312;SDS011;6220;53.580;9.758;2023-02-28T15:13:06;2.57;;;2.07;;
12312;SDS011;6220;53.580;9.758;2023-02-28T15:15:44;2.87;;;2.27;;
12312;SDS011;6220;53.580;9.758;2023-02-28T15:21:15;3.70;;;2.47;;
12312;SDS011;6220;53.580;9.758;2023-02-28T15:23:44;4.63;;;2.27;;
12312;SDS011;6220;53.580;9.758;2023-02-28T15:26:13;3.40;;;1.87;;
12312;SDS011;6220;53.580;9.758;2023-02-28T15:28:42;3.17;;;1.87;;
12312;SDS011;6220;53.580;9.758;2023-02-28T15:31:26;3.00;;;1.73;;
12312;SDS011;6220;53.580;9.758;2023-02-28T15:34:02;6.73;;;2.20;;
12312;SDS011;6220;53.580;9.758;2023-02-28T15:36:30;3.03;;;1.97;;
12312;SDS011;6220;53.580;9.758;2023-02-28T15:39:02;2.97;;;2.20;;
12312;SDS011;6220;53.580;9.758;2023-02-28T15:41:42;3.63;;;2.20;;
12312;SDS011;6220;53.580;9.758;2023-02-28T15:47:05;4.83;;;2.30;;
12312;SDS011;6220;53.580;9.758;2023-02-28T15:49:36;4.07;;;2.50;;
12312;SDS011;6220;53.580;9.758;2023-02-28T15:52:15;3.37;;;2.30;;
12312;SDS011;6220;53.580;9.758;2023-02-28T15:54:42;3.93;;;2.17;;
12312;SDS011;6220;53.580;9.758;2023-02-28T15:57:18;4.77;;;2.30;;
12312;SDS011;6220;53.580;9.758;2023-02-28T15:59:50;5.37;;;2.17;;
12312;SDS011;6220;53.580;9.758;2023-02-28T16:02:19;3.80;;;2.07;;
12312;SDS011;6220;53.580;9.758;2023-02-28T16:07:33;4.10;;;2.10;;
12312;SDS011;6220;53.580;9.758;2023-02-28T16:10:00;4.63;;;2.27;;
12312;SDS011;6220;53.580;9.758;2023-02-28T16:12:27;4.67;;;2.30;;
12312;SDS011;6220;53.580;9.758;2023-02-28T16:14:54;3.87;;;2.53;;
12312;SDS011;6220;53.580;9.758;2023-02-28T16:17:26;5.07;;;2.90;;
12312;SDS011;6220;53.580;9.758;2023-02-28T16:19:53;5.10;;;2.40;;
12312;SDS011;6220;53.580;9.758;2023-02-28T16:22:19;5.30;;;2.70;;
12312;SDS011;6220;53.580;9.758;2023-02-28T16:24:45;10.20;;;4.80;;
12312;SDS011;6220;53.580;9.758;2023-02-28T16:27:15;6.87;;;4.20;;
12312;SDS011;6220;53.580;9.758;2023-02-28T16:29:43;2.70;;;2.00;;
12312;SDS011;6220;53.580;9.758;2023-02-28T16:32:10;4.03;;;2.10;;
12312;SDS011;6220;53.580;9.758;2023-02-28T16:34:37;2.90;;;2.17;;
12312;SDS011;6220;53.580;9.758;2023-02-28T16:37:04;4.73;;;2.37;;
12312;SDS011;6220;53.580;9.758;2023-02-28T16:39:30;4.03;;;2.07;;
12312;SDS011;6220;53.580;9.758;2023-02-28T16:41:55;5.53;;;2.40;;
12312;SDS011;6220;53.580;9.758;2023-02-28T16:44:24;2.93;;;1.90;;
12312;SDS011;6220;53.580;9.758;2023-02-28T16:46:51;4.80;;;2.20;;
12312;SDS011;6220;53.580;9.758;2023-02-28T16:49:16;4.30;;;2.00;;
12312;SDS011;6220;53.580;9.758;2023-02-28T16:51:41;5.13;;;2.83;;
12312;SDS011;6220;53.580;9.758;2023-02-28T16:54:07;6.33;;;3.10;;
12312;SDS011;6220;53.580;9.758;2023-02-28T16:56:32;5.87;;;2.40;;
12312;SDS011;6220;53.580;9.758;2023-02-28T16:58:59;5.10;;;2.20;;
12312;SDS011;6220;53.580;9.758;2023-02-28T17:01:26;2.70;;;1.90;;
12312;SDS011;6220;53.580;9.758;2023-02-28T17:03:52;5.57;;;2.00;;
12312;SDS011;6220;53.580;9.758;2023-02-28T17:06:24;2.60;;;2.00;;
12312;SDS011;6220;53.580;9.758;2023-02-28T17:08:53;3.00;;;2.10;;
12312;SDS011;6220;53.580;9.758;2023-02-28T17:11:18;4.30;;;2.33;;
12312;SDS011;6220;53.580;9.758;2023-02-28T17:13:44;6.57;;;2.20;;
12312;SDS011;6220;53.580;9.758;2023-02-28T17:16:15;4.80;;;2.40;;
12312;SDS011;6220;53.580;9.758;2023-02-28T17:18:44;4.43;;;2.60;;
12312;SDS011;6220;53.580;9.758;2023-02-28T17:21:13;3.33;;;2.10;;
12312;SDS011;6220;53.580;9.758;2023-02-28T17:23:40;2.30;;;1.90;;
12312;SDS011;6220;53.580;9.758;2023-02-28T17:26:05;4.17;;;2.37;;
12312;SDS011;6220;53.580;9.758;2023-02-28T17:28:31;6.03;;;3.23;;
12312;SDS011;6220;53.580;9.758;2023-02-28T17:30:57;4.20;;;2.90;;
12312;SDS011;6220;53.580;9.758;2023-02-28T17:33:22;5.27;;;4.13;;
12312;SDS011;6220;53.580;9.758;2023-02-28T17:35:49;7.00;;;5.37;;
12312;SDS011;6220;53.580;9.758;2023-02-28T17:38:18;5.23;;;4.63;;
12312;SDS011;6220;53.580;9.758;2023-02-28T17:40:44;8.67;;;5.83;;
12312;SDS011;6220;53.580;9.758;2023-02-28T17:43:09;13.27;;;10.27;;
12312;SDS011;6220;53.580;9.758;2023-02-28T17:45:39;8.80;;;6.37;;
12312;SDS011;6220;53.580;9.758;2023-02-28T17:48:05;8.53;;;6.10;;
12312;SDS011;6220;53.580;9.758;2023-02-28T17:50:31;14.30;;;11.37;;
12312;SDS011;6220;53.580;9.758;2023-02-28T17:52:57;12.27;;;10.83;;
12312;SDS011;6220;53.580;9.758;2023-02-28T17:55:23;16.30;;;12.23;;
12312;SDS011;6220;53.580;9.758;2023-02-28T17:57:48;16.27;;;10.10;;
12312;SDS011;6220;53.580;9.758;2023-02-28T18:00:14;8.17;;;5.40;;
12312;SDS011;6220;53.580;9.758;2023-02-28T18:02:42;6.10;;;4.40;;
12312;SDS011;6220;53.580;9.758;2023-02-28T18:05:08;7.70;;;4.13;;
12312;SDS011;6220;53.580;9.758;2023-02-28T18:07:39;8.07;;;5.40;;
12312;SDS011;6220;53.580;9.758;2023-02-28T18:10:05;10.00;;;6.50;;
12312;SDS011;6220;53.580;9.758;2023-02-28T18:12:31;10.83;;;6.70;;
12312;SDS011;6220;53.580;9.758;2023-02-28T18:14:56;7.93;;;6.07;;
12312;SDS011;6220;53.580;9.758;2023-02-28T18:17:25;7.83;;;6.17;;
12312;SDS011;6220;53.580;9.758;2023-02-28T18:19:51;10.47;;;6.90;;
12312;SDS011;6220;53.580;9.758;2023-02-28T18:22:16;7.37;;;5.13;;
12312;SDS011;6220;53.580;9.758;2023-02-28T18:24:43;10.83;;;6.73;;